Terminal Aerodrome Forecast
Issued by NWS

Home | Current Version | Previous Version | Graphics & Text | Print | Product List | Glossary On
Versions: 1 2 3 4 5 6 7 8 9 10 11 12 13 14 15 16 17 18 19
000
FTUS42 KMHX 251727
TAFPGV
TAF
KPGV 251727Z 2518/2618 36008KT P6SM BKN250
     FM260300 08004KT 3SM -SN BR OVC007
     FM261100 02010G16KT 4SM -FZRA OVC007
     FM261400 02012G18KT 5SM BR OVC010
      AMD LTD TO CLD VIS AND WIND=

USA.gov is the U.S. government's official web portal to all federal, state and local government web resources and services.